Monday, October 15, 2018, 3:31 AM CDT
Back to Local

KMDW, Chicago Midway Airport

Location: Chicago, IL, United States Lat: 41.783
Local Time: 3:31 AM CDT ( 8:31 GMT) Lon: -87.75
Time Zone: US/Central Elev: 620 ft

Show me the last for .
Show Decoded

2018-10-15 02:53 METAR KMDW 150753Z 31011G18KT 3SM -RA BR OVC008 08/06 A3001 RMK AO2 DZE15RAB15
                 SLP166 P0003 T00780061 $ =
2018-10-15 02:15 METAR KMDW 150715Z 30008KT 6SM -RA BR BKN013 OVC025 08/06 A3000 RMK AO2
                 DZE15RAB15 P0000 T00830061 $ =
2018-10-15 01:53 METAR KMDW 150653Z 29007KT 6SM -DZ BR OVC025 08/06 A3000 RMK AO2 RAE42DZB42
                 SLP160 P0001 T00830061 $ =
2018-10-15 01:31 METAR KMDW 150631Z 30005KT 6SM -RA BR BKN025 OVC046 08/06 A3000 RMK AO2 P0001
                 T00830061 $ =
2018-10-15 00:53 METAR KMDW 150553Z 30005KT 6SM -RA BR OVC045 08/06 A2999 RMK AO2
                 RAE28B51DZB28E51 SLP156 P0000 60009 T00830061 10117 20083 401440044 56010 $ =
2018-10-14 23:53 METAR KMDW 150453Z 30005KT 6SM -RA BR FEW009 OVC050 08/06 A2999 RMK AO2 SLP156
                 P0002 T00830061 $ =
2018-10-14 23:14 METAR KMDW 150414Z 30003KT 6SM -RA BR FEW009 SCT080 OVC090 08/06 A2999 RMK AO2
                 P0001 T00830061 $ =
2018-10-14 22:53 METAR KMDW 150353Z 31003KT 6SM -RA BR FEW024 BKN039 OVC080 08/06 A2999 RMK AO2
                 SLP158 P0005 T00830061 $ =
2018-10-14 22:40 METAR KMDW 150340Z 31003KT 6SM -RA BR SCT024 BKN039 OVC075 09/06 A3000 RMK AO2
                 P0005 T00890061 $ =
2018-10-14 21:53 METAR KMDW 150253Z 32007KT 6SM -RA BR BKN026 OVC032 09/06 A3002 RMK AO2
                 DZB20E29RAB29 SLP167 P0002 60002 T00940061 50012 $ =
2018-10-14 20:53 METAR KMDW 150153Z 31010KT 10SM OVC036 11/05 A3002 RMK AO2 SLP169 T01060050 $ =
2018-10-14 19:53 METAR KMDW 150053Z 31008KT 10SM OVC036 12/06 A3000 RMK AO2 SLP162 T01170056 $ =
2018-10-14 18:53 METAR KMDW 142353Z 29006KT 10SM FEW036 BKN042 OVC210 12/06 A2998 RMK AO2 SLP157
                 T01170056 10144 20117 53002 $ =
2018-10-14 17:53 METAR KMDW 142253Z 29009KT 10SM FEW030 SCT075 BKN210 BKN250 12/06 A2998 RMK AO2
                 SLP156 T01220056 =
2018-10-14 16:53 METAR KMDW 142153Z 28008KT 10SM FEW032 FEW055 BKN210 BKN250 13/06 A2997 RMK AO2
                 SLP152 T01330061 =
2018-10-14 15:53 METAR KMDW 142053Z 24010KT 10SM FEW032 SCT055 BKN220 BKN250 14/06 A2998 RMK AO2
                 SLP154 T01390061 56014 =
2018-10-14 14:53 METAR KMDW 141953Z 22004KT 10SM SCT030 BKN055 BKN250 13/06 A2998 RMK AO2 SLP157
                 T01330056 =
2018-10-14 13:53 METAR KMDW 141853Z 22008G14KT 10SM SCT030 BKN055 BKN250 13/06 A2999 RMK AO2
                 SLP160 T01280056 =
2018-10-14 12:53 METAR KMDW 141753Z 20008G15KT 10SM BKN030 BKN250 13/06 A3002 RMK AO2 SLP169
                 T01280056 10128 20044 56012 =
2018-10-14 11:53 METAR KMDW 141653Z 21007KT 10SM SCT030 SCT250 12/04 A3003 RMK AO2 SLP171
                 T01220044 =
2018-10-14 10:53 METAR KMDW 141553Z 17011KT 10SM SCT028 SCT150 12/04 A3004 RMK AO2 SLP177
                 T01170039 =
2018-10-14 09:53 METAR KMDW 141453Z 17005KT 10SM FEW020 FEW080 10/03 A3005 RMK AO2 SLP181
                 T01000033 50003 =
2018-10-14 08:53 METAR KMDW 141353Z 18004KT 10SM CLR 08/03 A3006 RMK AO2 SLP182 T00780028 =
2018-10-14 07:53 METAR KMDW 141253Z 00000KT 10SM FEW080 FEW250 06/02 A3005 RMK AO2 SLP181
                 T00560022 =
2018-10-14 06:53 METAR KMDW 141153Z 15003KT 10SM FEW080 FEW250 05/02 A3005 RMK AO2 SLP180
                 T00500017 10061 20044 51005 =
2018-10-14 05:53 METAR KMDW 141053Z 13003KT 10SM CLR 04/02 A3005 RMK AO2 SLP180 T00440017 =
2018-10-14 04:53 METAR KMDW 140953Z 00000KT 10SM CLR 05/02 A3004 RMK AO2 SLP175 T00500017 =
2018-10-14 03:53 METAR KMDW 140853Z 00000KT 10SM FEW250 05/02 A3003 RMK AO2 SLP173 T00500017
                 50004 =

Support USWX by starting your Amazon purchase here.